Portada
METAR-TAF:

METAR-TAF

Aeropuertos :

Yap, Micronesia

Aeropuerto Internacional de Yap

latitud: 09-29N, longitud: 138-05E, altitud: 28 m

Observación

El informe se hizo hace 14 minutos, a las 01:51 UTC
Viento 10 kt del este
Temperatura 30°C
Humedad 75%
Presión 1009 hPa
Visibilidad: 19.3 km
Escasas nubes a una altura de 1800 ft
Nubes dispersas a una altura de 30000 ft

METAR: PTYA 230151Z 08010KT 12SM FEW018 SCT300 30/25 A2980 RMK SLP091 T03010248

Hora: 12:05 (02:05 UTC)

Pronóstico

El informe se hizo hace 2 horas y 39 minutos, a las 23:26 UTC
Pronóstico válido del 23 a las 00 UTC al 23 a las 24 UTC
Viento 9 kt del este-noreste
Visibilidad: 10 km
Escasas nubes a una altura de 1600 ft
Cielo nuboso a una altura de 13000 ft
chaparrones en las proximidades

TAF: PTYA 222326Z 2300/2324 06009KT P6SM VCSH FEW016 BKN130

Observaciones y pronósticos meteorológicos de más de 4000 aeropuertos (mensajes METAR y TAF).

Los puntos amarillos y rojos representan las estaciones disponibles.

Ponga el ratón en el punto deseado para ver el nombre de la estación.

Haga clic para ver las observaciones y los pronósticos meteorológicos.

Para cambiar el mapa : haga clic en los botones verdes con una cruz de color negro para hacer un zoom, en el botón verde con un guión para alejar o en las flechas verdes para mapas adyacentes.


METAR-TAF: